createdAt,value
2023-01-07T00:01:44.669Z,15.90
2023-01-07T00:04:13.608Z,15.79
2023-01-07T00:06:42.148Z,15.54
2023-01-07T00:09:12.922Z,15.77
2023-01-07T00:11:41.674Z,15.93
2023-01-07T00:14:10.312Z,15.69
2023-01-07T00:16:38.472Z,15.59
2023-01-07T00:19:08.195Z,15.69
2023-01-07T00:21:36.147Z,15.77
2023-01-07T00:24:05.213Z,15.89
2023-01-07T00:26:33.898Z,15.88
2023-01-07T00:29:01.885Z,15.99
2023-01-07T00:31:30.760Z,16.03
2023-01-07T00:34:08.937Z,16.01
2023-01-07T00:36:39.812Z,15.89
2023-01-07T00:39:09.341Z,15.97
2023-01-07T00:41:37.658Z,16.04
2023-01-07T00:44:06.353Z,15.93
2023-01-07T00:46:34.418Z,15.96
2023-01-07T00:49:02.638Z,15.66
2023-01-07T00:51:30.640Z,15.92
2023-01-07T00:53:59.973Z,15.97
2023-01-07T00:56:27.970Z,16.00
2023-01-07T00:58:55.953Z,16.06
2023-01-07T01:01:24.004Z,16.07
2023-01-07T01:03:52.556Z,16.08
2023-01-07T01:06:20.588Z,16.08
2023-01-07T01:08:48.601Z,15.77
2023-01-07T01:11:18.098Z,15.76
2023-01-07T01:13:46.165Z,15.90
2023-01-07T01:16:17.700Z,15.90
2023-01-07T01:18:45.962Z,15.68
2023-01-07T01:21:14.829Z,15.71
2023-01-07T01:23:43.120Z,15.74
2023-01-07T01:26:11.804Z,15.78
2023-01-07T01:28:41.241Z,15.86
2023-01-07T01:31:09.359Z,15.89
2023-01-07T01:33:37.518Z,15.90
2023-01-07T01:36:06.136Z,15.92
2023-01-07T01:38:34.107Z,15.32
2023-01-07T01:41:02.090Z,15.74
2023-01-07T01:43:31.099Z,15.65
2023-01-07T01:46:01.067Z,15.69
2023-01-07T01:48:29.273Z,15.73
2023-01-07T01:50:57.431Z,15.21
2023-01-07T01:53:26.222Z,14.96
2023-01-07T01:55:54.753Z,15.02
2023-01-07T01:58:24.237Z,14.68
2023-01-07T02:00:52.427Z,14.65
2023-01-07T02:03:22.094Z,14.38
2023-01-07T02:05:50.100Z,14.57
2023-01-07T02:08:22.239Z,14.78
2023-01-07T02:10:51.005Z,14.53
2023-01-07T02:13:22.831Z,14.72
2023-01-07T02:15:52.583Z,14.88
2023-01-07T02:18:25.134Z,15.18
2023-01-07T02:20:58.569Z,15.34
2023-01-07T02:23:37.779Z,15.46
2023-01-07T02:26:17.310Z,15.49
2023-01-07T02:28:59.396Z,15.34
2023-01-07T02:31:31.384Z,15.06
2023-01-07T02:34:00.792Z,14.79
2023-01-07T02:36:33.808Z,15.00
2023-01-07T02:39:06.267Z,14.37
2023-01-07T02:41:36.985Z,14.06
2023-01-07T02:44:06.018Z,13.78
2023-01-07T02:46:35.091Z,13.96
2023-01-07T02:49:07.297Z,14.22
2023-01-07T02:51:35.561Z,14.95
2023-01-07T02:54:03.581Z,15.17
2023-01-07T02:56:33.317Z,15.24
2023-01-07T02:59:19.308Z,15.10
2023-01-07T03:02:02.232Z,14.15
2023-01-07T03:04:35.954Z,14.56
2023-01-07T03:07:10.786Z,14.86
2023-01-07T03:09:41.117Z,14.57
2023-01-07T03:12:10.047Z,14.37
2023-01-07T03:14:39.225Z,14.51
2023-01-07T03:17:07.372Z,14.68
2023-01-07T03:19:37.594Z,14.83
2023-01-07T03:22:06.832Z,15.00
2023-01-07T03:24:34.832Z,15.01
2023-01-07T03:27:03.042Z,15.14
2023-01-07T03:29:32.239Z,15.33
2023-01-07T03:32:00.647Z,15.34
2023-01-07T03:34:29.156Z,15.35
2023-01-07T03:36:59.120Z,15.32
2023-01-07T03:39:27.718Z,15.48
2023-01-07T03:42:13.437Z,14.98
2023-01-07T03:44:41.530Z,14.44
2023-01-07T03:47:09.666Z,14.08
2023-01-07T03:49:38.655Z,14.27
2023-01-07T03:52:08.171Z,14.34
2023-01-07T03:54:36.120Z,14.10
2023-01-07T03:57:04.231Z,14.24
2023-01-07T03:59:32.157Z,13.89
2023-01-07T04:02:00.254Z,13.76
2023-01-07T04:04:28.338Z,13.64
2023-01-07T04:06:56.415Z,14.02
2023-01-07T04:09:25.856Z,13.65
2023-01-07T04:11:53.914Z,13.58
2023-01-07T04:14:21.963Z,13.88
2023-01-07T04:16:51.356Z,13.75
2023-01-07T04:19:19.390Z,14.15
2023-01-07T04:21:47.394Z,13.49
2023-01-07T04:24:15.722Z,13.53
2023-01-07T04:26:45.056Z,13.39
2023-01-07T04:29:13.150Z,13.66
2023-01-07T04:31:41.143Z,13.55
2023-01-07T04:34:09.092Z,13.49
2023-01-07T04:36:37.139Z,13.70
2023-01-07T04:39:05.362Z,13.78
2023-01-07T04:41:33.513Z,13.66
2023-01-07T04:44:02.880Z,13.50
2023-01-07T04:46:30.969Z,13.38
2023-01-07T04:48:58.945Z,13.47
2023-01-07T04:51:26.914Z,13.67
2023-01-07T04:53:56.601Z,13.47
2023-01-07T04:56:24.821Z,13.54
2023-01-07T04:58:52.971Z,13.45
2023-01-07T05:01:22.542Z,13.10
2023-01-07T05:03:50.588Z,13.07
2023-01-07T05:06:18.980Z,13.10
2023-01-07T05:08:47.051Z,13.09
2023-01-07T05:11:15.579Z,13.85
2023-01-07T05:13:43.604Z,13.67
2023-01-07T05:16:11.588Z,13.50
2023-01-07T05:18:40.938Z,13.03
2023-01-07T05:21:10.477Z,13.36
2023-01-07T05:23:38.499Z,13.65
2023-01-07T05:26:07.464Z,13.50
2023-01-07T05:28:35.414Z,13.29
2023-01-07T05:31:03.526Z,13.01
2023-01-07T05:33:31.596Z,13.11
2023-01-07T05:36:00.909Z,13.32
2023-01-07T05:38:28.913Z,13.34
2023-01-07T05:40:57.649Z,13.30
2023-01-07T05:43:25.916Z,12.95
2023-01-07T05:45:55.841Z,13.08
2023-01-07T05:48:24.017Z,13.01
2023-01-07T05:50:51.952Z,12.90
2023-01-07T05:53:21.419Z,13.07
2023-01-07T05:55:49.364Z,13.90
2023-01-07T05:58:17.289Z,13.92
2023-01-07T06:00:45.291Z,13.89
2023-01-07T06:03:13.369Z,14.19
2023-01-07T06:05:41.501Z,13.80
2023-01-07T06:08:09.620Z,13.79
2023-01-07T06:10:39.060Z,13.56
2023-01-07T06:13:07.210Z,14.04
2023-01-07T06:15:35.330Z,14.01
2023-01-07T06:18:03.553Z,13.42
2023-01-07T06:20:34.801Z,13.72
2023-01-07T06:23:03.241Z,13.67
2023-01-07T06:25:31.345Z,13.83
2023-01-07T06:28:00.718Z,13.52
2023-01-07T06:30:28.798Z,13.33
2023-01-07T06:32:56.933Z,13.80
2023-01-07T06:35:25.152Z,13.47
2023-01-07T06:37:53.118Z,13.33
2023-01-07T06:40:21.047Z,13.27
2023-01-07T06:42:49.061Z,13.39
2023-01-07T06:45:18.570Z,13.42
2023-01-07T06:47:48.573Z,12.49
2023-01-07T06:50:16.866Z,12.54
2023-01-07T06:52:44.793Z,12.49
2023-01-07T06:55:12.867Z,12.38
2023-01-07T06:57:40.794Z,12.33
2023-01-07T07:00:09.592Z,12.29
2023-01-07T07:02:39.035Z,11.78
2023-01-07T07:05:07.294Z,12.05
2023-01-07T07:07:35.240Z,11.57
2023-01-07T07:10:07.241Z,11.90
2023-01-07T07:12:35.339Z,11.44
2023-01-07T07:15:03.294Z,11.27
2023-01-07T07:17:31.237Z,11.18
2023-01-07T07:20:00.579Z,11.45
2023-01-07T07:22:28.566Z,11.34
2023-01-07T07:24:56.623Z,10.95
2023-01-07T07:27:24.578Z,11.04
2023-01-07T07:29:52.724Z,10.98
2023-01-07T07:32:20.710Z,10.79
2023-01-07T07:34:48.708Z,10.62
2023-01-07T07:37:17.961Z,10.79
2023-01-07T07:39:45.966Z,11.25
2023-01-07T07:42:14.019Z,11.28
2023-01-07T07:44:41.961Z,11.34
2023-01-07T07:47:12.942Z,11.24
2023-01-07T07:49:40.924Z,11.21
2023-01-07T07:52:08.876Z,11.54
2023-01-07T07:54:38.287Z,11.71
2023-01-07T07:57:06.263Z,11.59
2023-01-07T07:59:34.184Z,11.12
2023-01-07T08:02:02.224Z,11.87
2023-01-07T08:04:34.042Z,11.68
2023-01-07T08:07:02.092Z,11.63
2023-01-07T08:09:30.029Z,11.35
2023-01-07T08:11:59.302Z,11.30
2023-01-07T08:14:27.261Z,11.64
2023-01-07T08:16:55.252Z,11.89
2023-01-07T08:19:23.715Z,11.85
2023-01-07T08:21:52.066Z,11.39
2023-01-07T08:24:20.086Z,11.14
2023-01-07T08:26:48.023Z,10.99
2023-01-07T08:29:17.446Z,12.06
2023-01-07T08:31:45.590Z,12.33
2023-01-07T08:34:13.706Z,12.11
2023-01-07T08:36:41.674Z,12.26
2023-01-07T08:39:09.869Z,12.08
2023-01-07T08:41:37.812Z,12.73
2023-01-07T08:44:06.089Z,12.70
2023-01-07T08:46:35.506Z,12.63
2023-01-07T08:49:03.592Z,12.28
2023-01-07T08:51:31.623Z,12.76
2023-01-07T08:53:59.570Z,13.16
2023-01-07T08:56:27.567Z,13.22
2023-01-07T08:58:55.554Z,13.38
2023-01-07T09:01:23.690Z,13.46
2023-01-07T09:03:53.144Z,13.53
2023-01-07T09:06:21.104Z,13.57
2023-01-07T09:08:49.089Z,12.34
2023-01-07T09:11:17.177Z,13.41
2023-01-07T09:13:45.231Z,13.66
2023-01-07T09:16:13.310Z,13.62
2023-01-07T09:18:41.508Z,13.73
2023-01-07T09:21:10.806Z,13.39
2023-01-07T09:23:39.029Z,13.96
2023-01-07T09:26:07.244Z,14.04
2023-01-07T09:28:35.250Z,14.16
2023-01-07T09:31:04.166Z,14.04
2023-01-07T09:33:32.209Z,14.31
2023-01-07T09:36:00.162Z,14.25
2023-01-07T09:38:31.061Z,13.59
2023-01-07T09:40:59.030Z,14.30
2023-01-07T09:43:59.927Z,14.48
2023-01-07T09:46:16.368Z,14.32
2023-01-07T09:48:44.985Z,14.47
2023-01-07T09:51:13.707Z,14.45
2023-01-07T09:53:43.576Z,14.66
2023-01-07T09:56:13.643Z,14.65
2023-01-07T09:58:42.333Z,14.44
2023-01-07T10:01:15.422Z,14.21
2023-01-07T10:03:47.137Z,13.47
2023-01-07T10:06:16.177Z,13.60
2023-01-07T10:08:49.414Z,14.27
2023-01-07T10:11:20.370Z,14.12
2023-01-07T10:13:51.731Z,13.17
2023-01-07T10:16:20.720Z,13.44
2023-01-07T10:18:51.054Z,13.27
2023-01-07T10:21:20.113Z,13.54
2023-01-07T10:23:50.452Z,13.26
2023-01-07T10:26:22.518Z,13.32
2023-01-07T10:28:51.973Z,13.65
2023-01-07T10:31:21.480Z,14.11
2023-01-07T10:33:50.122Z,13.83
2023-01-07T10:36:20.970Z,13.97
2023-01-07T10:38:52.917Z,14.69
2023-01-07T10:41:22.647Z,13.82
2023-01-07T10:43:56.987Z,13.95
2023-01-07T10:46:28.386Z,13.46
2023-01-07T10:49:02.762Z,13.22
2023-01-07T10:51:38.576Z,13.70
2023-01-07T10:54:09.124Z,13.91
2023-01-07T10:56:37.399Z,12.98
2023-01-07T10:59:05.778Z,13.10
2023-01-07T11:01:34.431Z,13.61
2023-01-07T11:04:02.498Z,13.95
2023-01-07T11:06:34.612Z,13.74
2023-01-07T11:09:04.404Z,14.08
2023-01-07T11:11:33.711Z,14.30
2023-01-07T11:14:03.268Z,14.04
2023-01-07T11:16:32.407Z,13.73
2023-01-07T11:19:02.034Z,13.97
2023-01-07T11:21:42.720Z,14.41
2023-01-07T11:24:25.651Z,13.98
2023-01-07T11:26:54.977Z,14.23
2023-01-07T11:29:24.752Z,13.92
2023-01-07T11:31:53.689Z,14.27
2023-01-07T11:34:24.060Z,14.55
2023-01-07T11:36:52.154Z,14.02
2023-01-07T11:39:20.570Z,14.48
2023-01-07T11:41:56.835Z,15.77
2023-01-07T11:44:24.827Z,15.14
2023-01-07T11:46:52.874Z,15.28
2023-01-07T11:49:22.395Z,14.54
2023-01-07T11:51:50.372Z,14.36
2023-01-07T11:54:20.516Z,14.30
2023-01-07T11:56:48.487Z,15.01
2023-01-07T11:59:25.125Z,14.72
2023-01-07T12:01:53.640Z,14.95
2023-01-07T12:04:22.519Z,14.93
2023-01-07T12:09:38.859Z,14.62
2023-01-07T12:12:27.275Z,14.49
2023-01-07T12:14:56.148Z,14.52
2023-01-07T12:17:26.507Z,14.52
2023-01-07T12:20:07.568Z,14.73
2023-01-07T12:22:43.698Z,14.81
2023-01-07T12:25:45.483Z,14.52
2023-01-07T12:28:17.446Z,14.62
2023-01-07T12:31:00.805Z,14.91
2023-01-07T12:33:40.530Z,14.75
2023-01-07T12:36:13.883Z,14.13
2023-01-07T12:38:45.133Z,14.55
2023-01-07T12:41:20.081Z,14.63
2023-01-07T12:43:58.249Z,14.67
2023-01-07T12:46:32.442Z,14.45
2023-01-07T12:49:07.162Z,14.90
2023-01-07T12:51:40.587Z,14.46
2023-01-07T12:54:15.757Z,15.28
2023-01-07T12:56:49.659Z,15.49
2023-01-07T12:59:45.859Z,15.01
2023-01-07T13:02:21.480Z,14.97
2023-01-07T13:04:56.286Z,14.98
2023-01-07T13:07:27.354Z,15.01
2023-01-07T13:10:01.377Z,15.17
2023-01-07T13:12:45.556Z,15.09
2023-01-07T13:15:21.247Z,15.19
2023-01-07T13:17:51.212Z,15.22
2023-01-07T13:20:39.728Z,15.15
2023-01-07T13:23:11.550Z,15.52
2023-01-07T13:25:49.611Z,16.17
2023-01-07T13:28:48.773Z,15.41
2023-01-07T13:31:32.016Z,16.51
2023-01-07T13:34:05.597Z,16.08
2023-01-07T13:36:37.709Z,16.60
2023-01-07T13:39:29.809Z,16.01
2023-01-07T13:42:13.720Z,15.60
2023-01-07T13:44:55.263Z,16.31
2023-01-07T13:47:26.532Z,16.59
2023-01-07T13:49:57.180Z,16.44
2023-01-07T13:52:29.299Z,15.62
2023-01-07T13:55:02.044Z,16.41
2023-01-07T13:57:43.934Z,15.41
2023-01-07T14:00:48.023Z,16.42
2023-01-07T14:03:49.635Z,15.25
2023-01-07T14:06:40.191Z,16.01
2023-01-07T14:09:33.265Z,16.66
2023-01-07T14:12:39.908Z,16.68
2023-01-07T14:15:38.603Z,16.88
2023-01-07T14:18:46.806Z,17.01
2023-01-07T14:21:32.090Z,16.57
2023-01-07T14:24:18.845Z,16.95
2023-01-07T14:26:52.467Z,16.88
2023-01-07T14:29:30.521Z,16.80
2023-01-07T14:32:14.933Z,16.87
2023-01-07T14:34:43.287Z,16.83
2023-01-07T14:37:17.726Z,16.84
2023-01-07T14:39:47.810Z,16.54
2023-01-07T14:42:43.008Z,16.75
2023-01-07T14:45:54.258Z,16.63
2023-01-07T14:48:43.249Z,16.48
2023-01-07T14:51:33.230Z,16.53
2023-01-07T14:54:43.717Z,16.43
2023-01-07T14:57:22.062Z,16.28
2023-01-07T15:00:12.315Z,16.06
2023-01-07T15:03:13.994Z,15.70
2023-01-07T15:06:12.326Z,15.93
2023-01-07T15:09:04.429Z,15.86
2023-01-07T15:15:00.556Z,15.86
2023-01-07T15:17:28.916Z,15.55
2023-01-07T15:19:57.956Z,15.43
2023-01-07T15:22:49.180Z,14.89
2023-01-07T15:25:26.153Z,15.02
2023-01-07T15:28:00.359Z,14.76
2023-01-07T15:30:37.907Z,14.79
2023-01-07T15:33:15.988Z,14.70
2023-01-07T15:35:45.664Z,14.08
2023-01-07T15:38:28.810Z,14.43
2023-01-07T15:40:57.767Z,14.39
2023-01-07T15:43:29.436Z,14.29
2023-01-07T15:46:02.684Z,14.26
2023-01-07T15:48:31.138Z,14.17
2023-01-07T15:51:00.688Z,14.04
2023-01-07T15:53:32.099Z,13.88
2023-01-07T15:56:02.862Z,13.74
2023-01-07T15:58:37.209Z,13.69
2023-01-07T16:01:06.164Z,13.68
2023-01-07T16:03:42.120Z,13.62
2023-01-07T16:06:27.886Z,13.59
2023-01-07T16:08:56.199Z,13.57
2023-01-07T16:11:26.578Z,13.43
2023-01-07T16:14:00.441Z,13.32
2023-01-07T16:16:30.488Z,13.23
2023-01-07T16:19:00.407Z,13.15
2023-01-07T16:21:31.019Z,13.05
2023-01-07T16:23:59.072Z,12.99
2023-01-07T16:26:31.275Z,12.87
2023-01-07T16:29:03.708Z,12.84
2023-01-07T16:31:32.171Z,12.85
2023-01-07T16:34:00.741Z,12.78
2023-01-07T16:36:32.067Z,12.71
2023-01-07T16:39:04.354Z,12.58
2023-01-07T16:41:32.755Z,12.38
2023-01-07T16:44:03.128Z,12.23
2023-01-07T16:46:33.120Z,12.17
2023-01-07T16:49:19.559Z,12.12
2023-01-07T16:51:50.135Z,11.97
2023-01-07T16:54:41.446Z,11.49
2023-01-07T16:57:32.764Z,11.28
2023-01-07T17:00:05.963Z,11.13
2023-01-07T17:02:37.820Z,11.50
2023-01-07T17:05:18.377Z,11.33
2023-01-07T17:07:48.260Z,11.30
2023-01-07T17:10:21.877Z,11.27
2023-01-07T17:12:58.744Z,11.33
2023-01-07T17:15:35.527Z,11.33
2023-01-07T17:18:28.767Z,11.31
2023-01-07T17:20:58.475Z,11.14
2023-01-07T17:23:38.319Z,10.81
2023-01-07T17:26:11.383Z,10.67
2023-01-07T17:28:44.990Z,10.74
2023-01-07T17:31:15.183Z,10.68
2023-01-07T17:33:44.022Z,10.64
2023-01-07T17:36:17.094Z,10.64
2023-01-07T17:38:45.651Z,10.57
2023-01-07T17:41:30.764Z,10.49
2023-01-07T17:43:59.119Z,10.34
2023-01-07T17:46:29.998Z,10.04
2023-01-07T17:48:58.654Z,9.27
2023-01-07T17:51:27.868Z,9.55
2023-01-07T17:53:57.771Z,9.84
2023-01-07T17:56:26.509Z,9.97
2023-01-07T17:58:56.241Z,10.10
2023-01-07T18:01:25.218Z,10.04
2023-01-07T18:03:55.562Z,10.09
2023-01-07T18:06:25.344Z,9.99
2023-01-07T18:08:53.782Z,10.06
2023-01-07T18:11:41.823Z,10.12
2023-01-07T18:14:13.912Z,10.14
2023-01-07T18:16:42.396Z,10.14
2023-01-07T18:19:13.758Z,10.15
2023-01-07T18:21:43.201Z,10.16
2023-01-07T18:24:16.701Z,10.19
2023-01-07T18:26:45.017Z,10.13
2023-01-07T18:29:14.051Z,10.15
2023-01-07T18:31:43.836Z,10.13
2023-01-07T18:34:15.291Z,10.13
2023-01-07T18:36:43.668Z,10.07
2023-01-07T18:39:18.982Z,10.04
2023-01-07T18:41:50.176Z,9.97
2023-01-07T18:44:18.754Z,10.04
2023-01-07T18:46:47.184Z,10.08
2023-01-07T18:49:17.129Z,10.04
2023-01-07T18:51:46.657Z,9.63
2023-01-07T18:54:15.125Z,9.78
2023-01-07T18:56:45.704Z,9.64
2023-01-07T18:59:14.000Z,9.77
2023-01-07T19:01:42.369Z,9.74
2023-01-07T19:04:10.823Z,9.79
2023-01-07T19:06:40.526Z,9.94
2023-01-07T19:09:08.796Z,9.88
2023-01-07T19:11:38.353Z,9.53
2023-01-07T19:14:06.663Z,9.64
2023-01-07T19:16:35.350Z,9.70
2023-01-07T19:19:04.642Z,9.66
2023-01-07T19:21:32.944Z,9.56
2023-01-07T19:24:04.621Z,9.67
2023-01-07T19:26:33.934Z,9.49
2023-01-07T19:29:03.281Z,9.45
2023-01-07T19:31:31.626Z,9.66
2023-01-07T19:34:00.114Z,9.32
2023-01-07T19:36:28.324Z,9.18
2023-01-07T19:38:56.648Z,9.20
2023-01-07T19:41:26.501Z,9.22
2023-01-07T19:43:59.169Z,9.01
2023-01-07T19:46:28.542Z,9.12
2023-01-07T19:48:56.846Z,9.18
2023-01-07T19:51:25.131Z,9.17
2023-01-07T19:54:01.645Z,8.96
2023-01-07T19:56:31.706Z,9.06
2023-01-07T19:59:00.627Z,8.99
2023-01-07T20:01:29.261Z,8.90
2023-01-07T20:03:58.991Z,8.91
2023-01-07T20:06:29.496Z,8.88
2023-01-07T20:08:59.116Z,8.83
2023-01-07T20:11:27.513Z,8.89
2023-01-07T20:13:57.151Z,8.87
2023-01-07T20:16:26.142Z,8.83
2023-01-07T20:18:55.445Z,8.69
2023-01-07T20:21:25.904Z,7.86
2023-01-07T20:23:55.065Z,8.00
2023-01-07T20:26:24.798Z,8.21
2023-01-07T20:28:53.312Z,8.28
2023-01-07T20:31:23.948Z,8.29
2023-01-07T20:33:52.365Z,8.24
2023-01-07T20:36:22.453Z,7.56
2023-01-07T20:38:51.248Z,8.01
2023-01-07T20:41:21.296Z,8.18
2023-01-07T20:43:52.210Z,8.26
2023-01-07T20:46:22.085Z,8.15
2023-01-07T20:48:50.670Z,8.25
2023-01-07T20:51:19.322Z,8.32
2023-01-07T20:53:48.163Z,8.24
2023-01-07T20:56:18.368Z,8.34
2023-01-07T20:58:47.213Z,8.35
2023-01-07T21:01:17.014Z,8.24
2023-01-07T21:03:46.877Z,8.07
2023-01-07T21:06:17.413Z,8.16
2023-01-07T21:08:46.167Z,8.21
2023-01-07T21:11:16.456Z,8.16
2023-01-07T21:13:44.877Z,8.20
2023-01-07T21:16:14.004Z,8.15
2023-01-07T21:18:42.827Z,7.88
2023-01-07T21:21:14.489Z,7.77
2023-01-07T21:23:42.993Z,7.76
2023-01-07T21:26:12.900Z,7.75
2023-01-07T21:28:41.509Z,7.73
2023-01-07T21:31:11.828Z,7.69
2023-01-07T21:33:41.065Z,7.68
2023-01-07T21:36:10.445Z,7.66
2023-01-07T21:38:40.540Z,7.63
2023-01-07T21:41:11.271Z,7.54
2023-01-07T21:43:40.493Z,7.54
2023-01-07T21:46:09.323Z,7.44
2023-01-07T21:48:39.407Z,7.37
2023-01-07T21:51:10.700Z,7.37
2023-01-07T21:53:40.471Z,7.33
2023-01-07T21:56:09.877Z,7.38
2023-01-07T21:58:38.781Z,7.42
2023-01-07T22:01:07.798Z,7.44
2023-01-07T22:03:37.238Z,7.42
2023-01-07T22:06:10.271Z,7.30
2023-01-07T22:08:40.534Z,7.22
2023-01-07T22:11:09.280Z,7.13
2023-01-07T22:13:42.322Z,7.23
2023-01-07T22:16:13.014Z,7.26
2023-01-07T22:18:43.657Z,7.20
2023-01-07T22:21:17.931Z,7.25
2023-01-07T22:23:52.341Z,7.25
2023-01-07T22:26:21.832Z,7.17
2023-01-07T22:28:54.301Z,7.17
2023-01-07T22:31:24.127Z,7.16
2023-01-07T22:33:52.893Z,7.03
2023-01-07T22:36:24.945Z,6.85
2023-01-07T22:38:55.635Z,6.98
2023-01-07T22:41:23.769Z,6.80
2023-01-07T22:43:52.000Z,6.67
2023-01-07T22:46:22.218Z,6.79
2023-01-07T22:48:50.923Z,6.84
2023-01-07T22:51:21.749Z,6.76
2023-01-07T22:53:51.444Z,6.60
2023-01-07T22:56:21.284Z,6.59
2023-01-07T22:58:49.632Z,6.70
2023-01-07T23:01:18.710Z,6.66
2023-01-07T23:03:47.337Z,6.72
2023-01-07T23:06:17.282Z,6.72
2023-01-07T23:08:45.862Z,6.70
2023-01-07T23:11:35.045Z,6.68
2023-01-07T23:14:05.131Z,6.65
2023-01-07T23:16:33.702Z,6.57
2023-01-07T23:19:02.056Z,6.54
2023-01-07T23:21:31.469Z,6.51
2023-01-07T23:24:00.138Z,6.47
2023-01-07T23:26:29.237Z,6.48
2023-01-07T23:28:57.652Z,6.45
2023-01-07T23:31:27.403Z,6.46
2023-01-07T23:33:55.825Z,6.47
2023-01-07T23:36:24.155Z,6.49
2023-01-07T23:38:52.510Z,6.45
2023-01-07T23:41:21.341Z,6.44
2023-01-07T23:43:49.799Z,6.32
2023-01-07T23:46:18.160Z,6.29
2023-01-07T23:48:47.866Z,6.33
2023-01-07T23:51:18.190Z,6.38
2023-01-07T23:53:47.063Z,6.32
2023-01-07T23:56:18.371Z,6.38
2023-01-07T23:58:46.725Z,6.22
